Have a Safe July 4th! 

Flight Track Log - Related Links

Times and Time Zones

All times are in EDT time to prevent confusion due to time zone crossing. See the AAL358Q flight status page for this flight to view local times or setup timezone preferences in your user account.

Time Position Orientation Groundspeed Altitude Reporting Facility
EDT Latitude Longitude Course Direction KTS MPH feet Rate Location/Type
Sat 01:26:16 AM 42.0167 -87.9333 48° Northeast 195 224 2,200  Level Chicago TRACON
Sat 01:27:16 AM 42.0500 -87.8833 48° Northeast 248 285 4,100 2,453 Climbing Chicago TRACON
Sat 01:29:39 AM 42.1250 -87.6636 65° Northeast 276 318 10,500 2,765 Climbing Chicago Center
Sat 01:30:40 AM 42.1517 -87.5628 70° East 285 328 13,500 2,678 Climbing Chicago Center
Sat 01:31:40 AM 42.1825 -87.4414 71° East 335 386 15,900 2,750 Climbing Chicago Center
Sat 01:32:40 AM 42.2161 -87.3128 71° East 361 415 19,000 2,727 Climbing Chicago Center
Sat 01:33:41 AM 42.2497 -87.1742 72° East 383 441 21,400 2,380 Climbing Chicago Center
Sat 01:34:41 AM 42.2808 -87.0281 74° East 402 463 23,800 2,400 Climbing Chicago Center
Sat 01:35:41 AM 42.2861 -86.8717 87° East 415 478 26,200 2,033 Climbing Chicago Center
Sat 01:36:42 AM 42.2928 -86.7144 87° East 420 483 27,900 1,587 Climbing Chicago Center
Sat 01:37:42 AM 42.2986 -86.5669 87° East 441 507 29,400 2,050 Climbing Chicago Center
Sat 01:38:42 AM 42.3056 -86.3781 87° East 443 510 32,000 2,231 Climbing Chicago Center
Sat 01:39:43 AM 42.3114 -86.2175 87° East 433 498 33,900 1,736 Climbing Chicago Center
Sat 01:40:43 AM 42.3150 -86.0592 88° East 429 494 35,500 1,537 Climbing Chicago Center
Sat 01:41:44 AM 42.3125 -85.8997 91° East 428 493 37,000 744 Climbing Chicago Center
Sat 01:42:44 AM 42.3114 -85.7417 90° East 425 489 37,000  Level Chicago Center
Sat 01:43:44 AM 42.3094 -85.5836 91° East 425 489 37,000  Level Chicago Center
Sat 01:44:44 AM 42.3072 -85.4233 91° East 429 494 37,000  Level Chicago Center
Sat 01:45:35 AM 42.3061 -85.2753 91° East 425 489 37,000  Level Cleveland Center
Sat 01:46:35 AM 42.3042 -85.1122 91° East 425 489 37,000  Level Cleveland Center
Sat 01:47:35 AM 42.3081 -84.9581 88° East 419 482 37,000  Level Cleveland Center
Sat 01:48:35 AM 42.3208 -84.7875 84° East 424 488 37,000  Level Cleveland Center
Sat 01:49:35 AM 42.3286 -84.6281 86° East 424 488 37,000  Level Cleveland Center
Sat 01:50:35 AM 42.3425 -84.4658 83° East 424 488 37,000  Level Cleveland Center
Sat 01:51:35 AM 42.3583 -84.3039 82° East 430 495 37,000  Level Cleveland Center
Sat 01:52:35 AM 42.3719 -84.1386 84° East 430 495 37,000  Level Cleveland Center
Sat 01:53:35 AM 42.3850 -83.9764 84° East 435 501 37,000  Level Cleveland Center
Sat 01:54:35 AM 42.3981 -83.8167 84° East 435 501 37,000  Level Cleveland Center
Sat 01:55:35 AM 42.4131 -83.6486 83° East 435 501 37,000  Level Cleveland Center
Sat 01:56:35 AM 42.4236 -83.4833 85° East 446 513 37,000  Level Cleveland Center
Sat 01:57:35 AM 42.4381 -83.3181 83° East 438 504 37,000  Level Cleveland Center
Sat 01:58:36 AM 42.4481 -83.1550 85° East 438 504 37,000  Level Cleveland Center
Sat 01:59:35 AM 42.4578 -82.9922 85° East 438 504 37,000  Level Cleveland Center
Sat 02:00:35 AM 42.4694 -82.8267 84° East 438 504 37,000  Level Cleveland Center
Sat 02:01:35 AM 42.4811 -82.6608 84° East 438 504 37,000  Level Cleveland Center
Sat 02:02:35 AM 42.4922 -82.4981 85° East 438 504 37,000  Level Cleveland Center
Sat 02:03:35 AM 42.5053 -82.3350 84° East 438 504 37,000  Level Cleveland Center
Sat 02:04:35 AM 42.5139 -82.1719 86° East 438 504 37,000  Level Cleveland Center
Sat 02:05:35 AM 42.5244 -82.0058 85° East 438 504 37,000  Level Cleveland Center
Sat 02:06:35 AM 42.5347 -81.8400 85° East 438 504 37,000  Level Cleveland Center
Sat 02:07:35 AM 42.5467 -81.6767 84° East 444 511 37,000  Level Cleveland Center
Sat 02:08:35 AM 42.5564 -81.5078 85° East 434 499 37,000  Level Cleveland Center
Sat 02:09:35 AM 42.5681 -81.3417 84° East 441 507 37,000  Level Cleveland Center
Sat 02:10:35 AM 42.5775 -81.1753 86° East 441 507 37,000  Level Cleveland Center
Sat 02:11:35 AM 42.5844 -81.0089 87° East 446 513 37,000  Level Cleveland Center
Sat 02:12:35 AM 42.5953 -80.8342 85° East 446 513 37,000  Level Cleveland Center
Sat 02:13:35 AM 42.5997 -80.6819 88° East 451 519 37,000  Level Cleveland Center
Sat 02:14:36 AM 42.6103 -80.5156 85° East 451 519 37,000  Level Cleveland Center
Sat 02:15:35 AM 42.6206 -80.3406 85° East 451 519 37,000  Level Cleveland Center
Sat 02:16:35 AM 42.6283 -80.1683 86° East 456 525 37,000  Level Cleveland Center
Sat 02:17:35 AM 42.6358 -79.9961 87° East 462 532 37,000  Level Cleveland Center
Sat 02:18:35 AM 42.6472 -79.8042 85° East 462 532 37,000  Level Cleveland Center
Sat 02:19:35 AM 42.6522 -79.6347 88° East 457 526 37,000  Level Cleveland Center
Sat 02:20:35 AM 42.6592 -79.4653 87° East 452 520 37,000  Level Cleveland Center
Sat 02:21:35 AM 42.6656 -79.2956 87° East 452 520 37,000  Level Cleveland Center
Sat 02:22:35 AM 42.6742 -79.1289 86° East 446 513 37,000  Level Cleveland Center
Sat 02:23:35 AM 42.6781 -78.9594 88° East 440 506 37,000  Level Cleveland Center
Sat 02:24:35 AM 42.6839 -78.7953 87° East 440 506 37,000  Level Cleveland Center
Sat 02:25:35 AM 42.6897 -78.6286 87° East 440 506 37,000  Level Cleveland Center
Sat 02:26:35 AM 42.6950 -78.4589 88° East 440 506 37,000  Level Cleveland Center
Sat 02:27:35 AM 42.7000 -78.2919 88° East 440 506 37,000  Level Cleveland Center
Sat 02:28:36 AM 42.7050 -78.1222 88° East 440 506 37,000  Level Cleveland Center
Sat 02:29:35 AM 42.7117 -77.9525 87° East 440 506 37,000  Level Cleveland Center
Sat 02:31:20 AM 42.7206 -77.6556 88° East 425 489 37,000  Level Boston Center
Sat 02:32:20 AM 42.7211 -77.5028 90° East 436 502 37,000  Level Boston Center
Sat 02:33:20 AM 42.7244 -77.3333 88° East 441 507 37,000  Level Boston Center
Sat 02:34:20 AM 42.7275 -77.1639 89° East 441 507 37,000  Level Boston Center
Sat 02:35:20 AM 42.7322 -76.9947 88° East 441 507 37,000  Level Boston Center
Sat 02:36:20 AM 42.7308 -76.8219 91° East 441 507 37,000  Level Boston Center
Sat 02:37:20 AM 42.7267 -76.6547 92° East 441 507 37,000  Level Boston Center
Sat 02:38:20 AM 42.7225 -76.4819 92° East 441 507 37,000  Level Boston Center
Sat 02:39:20 AM 42.7200 -76.3150 91° East 441 507 37,000 -50 Level Boston Center
Sat 02:40:20 AM 42.7153 -76.1453 92° East 441 507 36,900  Descending Boston Center
Sat 02:41:20 AM 42.7122 -75.9756 91° East 441 507 37,000  Climbing Boston Center
Sat 02:42:20 AM 42.7069 -75.8056 92° East 441 507 36,900  Descending Boston Center
Sat 02:43:20 AM 42.7014 -75.6356 92° East 441 507 37,000 50 Climbing Boston Center
Sat 02:44:20 AM 42.6978 -75.4631 92° East 441 507 37,000  Level Boston Center
Sat 02:45:20 AM 42.6919 -75.2933 93° East 441 507 37,000 -50 Level Boston Center
Sat 02:46:20 AM 42.6856 -75.1233 93° East 446 513 36,900 -50 Descending Boston Center
Sat 02:47:20 AM 42.6789 -74.9536 93° East 446 513 36,900 50 Level Boston Center
Sat 02:48:20 AM 42.6744 -74.7811 92° East 446 513 37,000 -300 Climbing Boston Center
Sat 02:49:20 AM 42.6672 -74.6086 93° East 446 513 36,300 -900 Descending Boston Center
Sat 02:50:20 AM 42.6603 -74.4164 93° East 457 526 35,200 -1,050 Descending Boston Center
Sat 02:51:20 AM 42.6550 -74.2442 92° East 457 526 34,200 -1,000 Descending Boston Center
Sat 02:52:20 AM 42.6450 -74.0772 95° East 457 526 33,200 -950 Descending Boston Center
Sat 02:53:20 AM 42.6389 -73.9106 93° East 452 520 32,300 -950 Descending Boston Center
Sat 02:54:20 AM 42.6306 -73.7381 94° East 447 514 31,300 -950 Descending Boston Center
Sat 02:55:20 AM 42.6281 -73.5717 91° East 447 514 30,400 -950 Descending Boston Center
Sat 02:56:20 AM 42.6194 -73.4050 94° East 442 509 29,400 -1,000 Descending Boston Center
Sat 02:57:20 AM 42.6122 -73.2442 93° East 436 502 28,400 -1,000 Descending Boston Center
Sat 02:58:20 AM 42.6028 -73.0747 94° East 436 502 27,400 -1,000 Descending Boston Center
Sat 02:59:20 AM 42.5953 -72.9167 94° East 440 506 26,400 -1,000 Descending Boston Center
Sat 03:00:20 AM 42.5875 -72.7644 94° East 426 490 25,400 -1,000 Descending Boston Center
Sat 03:01:20 AM 42.5775 -72.6064 95° East 420 483 24,400 -1,000 Descending Boston Center
Sat 03:02:20 AM 42.5714 -72.4514 93° East 413 475 23,400 -1,000 Descending Boston Center
Sat 03:03:20 AM 42.5608 -72.3075 96° East 400 460 22,400 -1,450 Descending Boston Center
Sat 03:04:20 AM 42.5544 -72.1892 94° East 383 441 20,500 -2,150 Descending Boston Center
Sat 03:05:20 AM 42.5456 -72.0539 95° East 361 415 18,100 -2,300 Descending Boston Center
Sat 03:06:20 AM 42.5306 -71.9133 98° East 350 403 15,900 -2,150 Descending Boston Center
Sat 03:07:20 AM 42.5217 -71.8006 96° East 344 396 13,800 -2,150 Descending Boston Center
Sat 03:08:20 AM 42.5103 -71.6683 97° East 328 377 11,600 -1,806 Descending Boston Center
Sat 03:08:53 AM 42.5000 -71.6000 102° East 313 360 11,000 -387 Descending KA90
Sat 03:09:53 AM 42.5000 -71.4833 90° East 276 318 11,000  Level KA90
Sat 03:10:56 AM 42.4833 -71.3833 103° East 278 320 11,000 -600 Level KA90
Sat 03:11:53 AM 42.4667 -71.2833 103° East 278 320 9,800 -1,436 Descending KA90
Sat 03:12:53 AM 42.4667 -71.1833 90° East 272 313 8,200 -1,600 Descending KA90
Sat 03:13:53 AM 42.4500 -71.0833 103° East 267 307 6,600 -1,463 Descending KA90
Sat 03:14:56 AM 42.4500 -70.9833 90° East 252 290 5,200 -1,450 Descending KA90
Sat 03:15:53 AM 42.4500 -70.9000 90° East 250 288 3,700 -1,357 Descending KA90
Sat 03:16:20 AM 42.4542 -70.8614 82° East 253 291 3,300 -897 Descending Boston Center
Sat 03:17:20 AM 42.3975 -70.8347 161° South 214 246 2,400 -650 Descending Boston Center
Sat 03:18:20 AM 42.3450 -70.8192 168° South 204 235 2,000 -200 Descending Boston Center
Sat 03:19:20 AM 42.2994 -70.8458 203° Southwest 171 197 2,000 -65 Level Boston Center
Sat 03:19:53 AM 42.3000 -70.8833 271° West 185 213 1,900 -516 Descending KA90
Sat 03:20:53 AM 42.3167 -70.9333 294° West 154 177 1,200 -750 Descending KA90
Sat 03:21:53 AM 42.3500 -70.9667 324° Northwest 141 162 400 -800 Descending KA90
Sat 03:24:00 AM 42.3500 -71.0000 North  Level FlightAware Approximate

Login

Don't have an account? Register now (free) for customized features, flight alerts, and more!